Airfield :
LOGIN :

Register | Disclaimer

   EN    FR    IT 

 










Legend :    VFR   Marginal VFR   IFR   Intensive IFR   Very Intensive IFR
Visi :
Ceiling :
>= 8 km
>= 3000ft
5 to 8 km
1000 to 3000 ft
1500m to 5 km
500 to 1000 ft
800 to 1500m
200 to 500 ft
< 800m
< 200 ft
Symbols :   Thunderstorms  Fog  Heavy snow  Heavy precipitations  Wind > 20 kt
SIGMETs :     Misc.  Thunderstorms  Icing  Turbulence  Mountain Waves  Volcanic Ashes






- Airport Elevation : 465 ft
- IATA code : OMR


LROD - Oradea International

CURRENT METAR :
  • 272130Z AUTO 10003KT 9999 SCT070/// BKN150/// 18/15 Q1016

EXPIRED METARs :
  • 272100Z AUTO 11004KT 9999 FEW060/// BKN075/// 18/15 Q1016
  • 272030Z AUTO 10004KT 9999 SCT060/// BKN075/// 18/14 Q1016
  • 272000Z AUTO 12004KT 9999 SCT065/// BKN160/// 18/14 Q1016
  • 271930Z AUTO 11003KT 9999 FEW070/// BKN160/// 18/14 Q1016
  • 271900Z AUTO 09003KT 9999 SCT065/// BKN130/// 19/14 Q1016

TAF TAF LROD
Valid from the 27 at 18:00 until the 28 at 03:00 UTC


271700Z 2718/2803 VRB04KT CAVOK
PROB30
TEMPO 2721/2723 5000 -SHRA SCT040CB



MET'MAP, your aeronautical weather chart ! - Copyright ORBIFLY December 2007 - Disclaimer

ORBIFLY MET'MAP TEAM :

Programming & Development : Alexandra Zaïnal
Concept & original design : Baudouin d'Aumeries
Assistance for programming : Marc-Olivier Méhu
Technical & hardware support : Manuel Goepfert

Contact : metmap@orbifly.com




SOURCES & CREDITS :

   NOAA